sensor_id;sensor_type;location;lat;lon;timestamp;pressure;altitude;pressure_sealevel;temperature;humidity
7376;BME280;3728;42.266;24.944;2023-07-22T00:01:51;99369.34;;;27.53;67.64
7376;BME280;3728;42.266;24.944;2023-07-22T00:04:18;99368.00;;;27.61;66.94
7376;BME280;3728;42.266;24.944;2023-07-22T00:06:47;99368.34;;;27.63;66.56
7376;BME280;3728;42.266;24.944;2023-07-22T00:09:15;99362.38;;;27.55;67.19
7376;BME280;3728;42.266;24.944;2023-07-22T00:11:42;99363.63;;;27.51;67.44
7376;BME280;3728;42.266;24.944;2023-07-22T00:14:11;99363.00;;;27.43;67.01
7376;BME280;3728;42.266;24.944;2023-07-22T00:16:39;99359.97;;;27.41;67.15
7376;BME280;3728;42.266;24.944;2023-07-22T00:19:07;99370.84;;;27.34;67.27
7376;BME280;3728;42.266;24.944;2023-07-22T00:21:34;99367.41;;;27.34;67.20
7376;BME280;3728;42.266;24.944;2023-07-22T00:24:02;99369.47;;;27.26;67.96
7376;BME280;3728;42.266;24.944;2023-07-22T00:26:31;99359.16;;;27.25;67.88
7376;BME280;3728;42.266;24.944;2023-07-22T00:28:58;99363.13;;;27.17;68.55
7376;BME280;3728;42.266;24.944;2023-07-22T00:31:26;99362.72;;;27.18;68.42
7376;BME280;3728;42.266;24.944;2023-07-22T00:33:54;99373.84;;;27.20;68.85
7376;BME280;3728;42.266;24.944;2023-07-22T00:36:21;99374.03;;;27.09;69.30
7376;BME280;3728;42.266;24.944;2023-07-22T00:38:49;99378.31;;;27.07;69.27
7376;BME280;3728;42.266;24.944;2023-07-22T00:41:20;99374.31;;;27.15;69.07
7376;BME280;3728;42.266;24.944;2023-07-22T00:43:48;99370.56;;;27.09;69.67
7376;BME280;3728;42.266;24.944;2023-07-22T00:46:16;99368.78;;;27.02;70.03
7376;BME280;3728;42.266;24.944;2023-07-22T00:48:44;99366.31;;;26.92;70.38
7376;BME280;3728;42.266;24.944;2023-07-22T00:51:13;99364.50;;;26.85;70.22
7376;BME280;3728;42.266;24.944;2023-07-22T00:53:41;99364.28;;;26.76;71.13
7376;BME280;3728;42.266;24.944;2023-07-22T00:56:08;99370.78;;;26.79;71.22
7376;BME280;3728;42.266;24.944;2023-07-22T00:58:36;99378.44;;;26.80;70.98
7376;BME280;3728;42.266;24.944;2023-07-22T01:01:04;99370.84;;;26.75;71.18
7376;BME280;3728;42.266;24.944;2023-07-22T01:03:32;99371.13;;;26.81;70.79
7376;BME280;3728;42.266;24.944;2023-07-22T01:05:59;99371.06;;;26.84;70.98
7376;BME280;3728;42.266;24.944;2023-07-22T01:08:27;99373.31;;;26.86;71.20
7376;BME280;3728;42.266;24.944;2023-07-22T01:10:55;99381.03;;;26.84;71.15
7376;BME280;3728;42.266;24.944;2023-07-22T01:13:23;99380.69;;;26.82;71.12
7376;BME280;3728;42.266;24.944;2023-07-22T01:15:50;99374.66;;;26.78;71.66
7376;BME280;3728;42.266;24.944;2023-07-22T01:18:19;99383.06;;;26.80;71.37
7376;BME280;3728;42.266;24.944;2023-07-22T01:20:46;99390.69;;;26.81;70.91
7376;BME280;3728;42.266;24.944;2023-07-22T01:23:14;99397.66;;;26.79;71.40
7376;BME280;3728;42.266;24.944;2023-07-22T01:25:43;99408.06;;;26.77;71.61
7376;BME280;3728;42.266;24.944;2023-07-22T01:28:10;99397.75;;;26.72;71.48
7376;BME280;3728;42.266;24.944;2023-07-22T01:30:38;99397.47;;;26.66;71.47
7376;BME280;3728;42.266;24.944;2023-07-22T01:33:06;99403.59;;;26.67;71.95
7376;BME280;3728;42.266;24.944;2023-07-22T01:35:34;99401.66;;;26.67;72.08
7376;BME280;3728;42.266;24.944;2023-07-22T01:38:02;99403.66;;;26.63;72.07
7376;BME280;3728;42.266;24.944;2023-07-22T01:40:29;99403.44;;;26.54;72.69
7376;BME280;3728;42.266;24.944;2023-07-22T01:42:57;99403.16;;;26.45;73.24
7376;BME280;3728;42.266;24.944;2023-07-22T01:45:25;99411.09;;;26.79;71.35
7376;BME280;3728;42.266;24.944;2023-07-22T01:47:52;99412.53;;;26.60;72.19
7376;BME280;3728;42.266;24.944;2023-07-22T01:50:20;99411.13;;;26.52;72.73
7376;BME280;3728;42.266;24.944;2023-07-22T01:52:49;99409.38;;;26.42;73.48
7376;BME280;3728;42.266;24.944;2023-07-22T01:55:16;99398.91;;;26.47;72.26
7376;BME280;3728;42.266;24.944;2023-07-22T01:57:45;99391.56;;;26.28;73.21
7376;BME280;3728;42.266;24.944;2023-07-22T02:00:13;99399.88;;;26.11;74.25
7376;BME280;3728;42.266;24.944;2023-07-22T02:02:44;99394.13;;;26.09;74.47
7376;BME280;3728;42.266;24.944;2023-07-22T02:05:12;99396.59;;;26.50;73.44
7376;BME280;3728;42.266;24.944;2023-07-22T02:07:40;99388.69;;;26.39;73.25
7376;BME280;3728;42.266;24.944;2023-07-22T02:10:07;99394.00;;;26.19;74.62
7376;BME280;3728;42.266;24.944;2023-07-22T02:12:36;99403.88;;;26.72;73.45
7376;BME280;3728;42.266;24.944;2023-07-22T02:15:04;99416.25;;;26.43;74.35
7376;BME280;3728;42.266;24.944;2023-07-22T02:17:32;99418.72;;;25.77;77.15
7376;BME280;3728;42.266;24.944;2023-07-22T04:22:46;99453.06;;;25.62;84.03
7376;BME280;3728;42.266;24.944;2023-07-22T04:25:14;99462.47;;;25.74;83.02
7376;BME280;3728;42.266;24.944;2023-07-22T04:27:42;99458.25;;;25.76;83.27
7376;BME280;3728;42.266;24.944;2023-07-22T04:30:10;99455.81;;;25.86;83.26
7376;BME280;3728;42.266;24.944;2023-07-22T04:32:41;99461.28;;;26.05;82.22
7376;BME280;3728;42.266;24.944;2023-07-22T04:35:08;99458.22;;;26.07;82.25
7376;BME280;3728;42.266;24.944;2023-07-22T04:37:36;99462.34;;;26.15;81.93
7376;BME280;3728;42.266;24.944;2023-07-22T04:40:04;99470.53;;;26.31;81.33
7376;BME280;3728;42.266;24.944;2023-07-22T04:42:35;99464.66;;;26.39;81.40
7376;BME280;3728;42.266;24.944;2023-07-22T04:45:03;99469.88;;;26.50;80.34
7376;BME280;3728;42.266;24.944;2023-07-22T04:47:30;99476.69;;;26.55;80.23
7376;BME280;3728;42.266;24.944;2023-07-22T04:49:58;99480.03;;;26.62;80.15
7376;BME280;3728;42.266;24.944;2023-07-22T04:52:26;99482.13;;;26.78;79.58
7376;BME280;3728;42.266;24.944;2023-07-22T04:54:53;99471.31;;;26.81;78.56
7376;BME280;3728;42.266;24.944;2023-07-22T04:57:21;99465.91;;;26.85;78.74
7376;BME280;3728;42.266;24.944;2023-07-22T04:59:49;99469.75;;;26.84;78.07
7376;BME280;3728;42.266;24.944;2023-07-22T05:02:16;99470.53;;;27.04;76.24
7376;BME280;3728;42.266;24.944;2023-07-22T05:04:44;99459.03;;;27.03;75.73
7376;BME280;3728;42.266;24.944;2023-07-22T05:07:11;99461.44;;;26.98;76.88
7376;BME280;3728;42.266;24.944;2023-07-22T05:09:38;99462.41;;;27.07;76.57
7376;BME280;3728;42.266;24.944;2023-07-22T05:12:06;99463.84;;;27.55;73.75
7376;BME280;3728;42.266;24.944;2023-07-22T05:14:34;99467.31;;;27.55;74.00
7376;BME280;3728;42.266;24.944;2023-07-22T05:17:01;99474.38;;;27.65;73.94
7376;BME280;3728;42.266;24.944;2023-07-22T05:19:29;99469.03;;;27.46;75.22
7376;BME280;3728;42.266;24.944;2023-07-22T05:21:57;99470.31;;;27.77;72.66
7376;BME280;3728;42.266;24.944;2023-07-22T05:24:24;99465.97;;;27.63;73.26
7376;BME280;3728;42.266;24.944;2023-07-22T05:26:52;99472.94;;;27.80;72.81
7376;BME280;3728;42.266;24.944;2023-07-22T05:29:34;99474.47;;;27.82;73.27
7376;BME280;3728;42.266;24.944;2023-07-22T05:32:02;99469.69;;;28.41;70.54
7376;BME280;3728;42.266;24.944;2023-07-22T05:34:36;99475.91;;;28.22;71.26
7376;BME280;3728;42.266;24.944;2023-07-22T05:37:04;99488.06;;;28.78;69.56
7376;BME280;3728;42.266;24.944;2023-07-22T05:39:32;99476.53;;;28.94;66.50
7376;BME280;3728;42.266;24.944;2023-07-22T05:41:59;99482.50;;;28.69;67.21
7376;BME280;3728;42.266;24.944;2023-07-22T05:44:27;99478.88;;;28.43;70.73
7376;BME280;3728;42.266;24.944;2023-07-22T05:46:54;99482.84;;;28.71;69.94
7376;BME280;3728;42.266;24.944;2023-07-22T05:49:24;99476.28;;;28.72;68.67
7376;BME280;3728;42.266;24.944;2023-07-22T05:51:52;99473.88;;;28.62;70.89
7376;BME280;3728;42.266;24.944;2023-07-22T05:54:19;99480.31;;;28.64;71.45
7376;BME280;3728;42.266;24.944;2023-07-22T05:56:47;99476.13;;;28.63;70.92
7376;BME280;3728;42.266;24.944;2023-07-22T05:59:15;99474.69;;;28.59;71.37
7376;BME280;3728;42.266;24.944;2023-07-22T06:01:47;99489.16;;;29.42;66.44
7376;BME280;3728;42.266;24.944;2023-07-22T06:04:15;99477.63;;;28.64;69.96
7376;BME280;3728;42.266;24.944;2023-07-22T06:06:43;99478.03;;;28.79;69.79
7376;BME280;3728;42.266;24.944;2023-07-22T06:09:10;99480.06;;;28.91;67.26
7376;BME280;3728;42.266;24.944;2023-07-22T06:11:38;99473.75;;;28.65;67.23
7376;BME280;3728;42.266;24.944;2023-07-22T06:14:05;99472.03;;;29.03;65.29
7376;BME280;3728;42.266;24.944;2023-07-22T06:16:35;99476.63;;;28.74;67.38
7376;BME280;3728;42.266;24.944;2023-07-22T06:19:03;99476.28;;;28.72;67.13
7376;BME280;3728;42.266;24.944;2023-07-22T06:21:31;99472.63;;;28.95;65.63
7376;BME280;3728;42.266;24.944;2023-07-22T06:23:59;99474.84;;;29.29;64.38
7376;BME280;3728;42.266;24.944;2023-07-22T06:26:26;99480.47;;;29.05;64.99
7376;BME280;3728;42.266;24.944;2023-07-22T06:28:54;99479.63;;;29.08;65.03
7376;BME280;3728;42.266;24.944;2023-07-22T06:31:22;99472.84;;;29.17;65.45
7376;BME280;3728;42.266;24.944;2023-07-22T06:33:51;99472.38;;;29.63;64.87
7376;BME280;3728;42.266;24.944;2023-07-22T06:36:19;99476.34;;;29.58;64.27
7376;BME280;3728;42.266;24.944;2023-07-22T06:38:47;99472.56;;;29.97;61.94
7376;BME280;3728;42.266;24.944;2023-07-22T06:41:14;99466.28;;;30.00;61.51
7376;BME280;3728;42.266;24.944;2023-07-22T06:43:42;99471.81;;;30.09;60.75
7376;BME280;3728;42.266;24.944;2023-07-22T06:46:10;99469.88;;;29.68;64.10
7376;BME280;3728;42.266;24.944;2023-07-22T06:48:38;99478.91;;;29.78;63.15
7376;BME280;3728;42.266;24.944;2023-07-22T06:51:07;99480.09;;;30.53;61.45
7376;BME280;3728;42.266;24.944;2023-07-22T06:53:37;99480.97;;;30.24;62.93
7376;BME280;3728;42.266;24.944;2023-07-22T06:56:06;99478.06;;;30.44;62.50
7376;BME280;3728;42.266;24.944;2023-07-22T06:58:33;99483.78;;;29.96;64.57
7376;BME280;3728;42.266;24.944;2023-07-22T07:01:02;99497.00;;;30.44;62.94
7376;BME280;3728;42.266;24.944;2023-07-22T07:03:30;99481.53;;;30.57;60.77
7376;BME280;3728;42.266;24.944;2023-07-22T07:05:58;99483.78;;;30.71;60.50
7376;BME280;3728;42.266;24.944;2023-07-22T07:08:26;99485.97;;;31.32;57.01
7376;BME280;3728;42.266;24.944;2023-07-22T07:10:54;99479.69;;;31.01;57.70
7376;BME280;3728;42.266;24.944;2023-07-22T07:13:22;99476.63;;;30.65;59.67
7376;BME280;3728;42.266;24.944;2023-07-22T07:15:50;99480.31;;;30.58;60.84
7376;BME280;3728;42.266;24.944;2023-07-22T07:18:17;99472.81;;;30.87;58.69
7376;BME280;3728;42.266;24.944;2023-07-22T07:20:45;99469.25;;;30.78;59.89
7376;BME280;3728;42.266;24.944;2023-07-22T07:23:13;99469.56;;;30.92;57.91
7376;BME280;3728;42.266;24.944;2023-07-22T07:25:43;99461.78;;;31.16;57.20
7376;BME280;3728;42.266;24.944;2023-07-22T07:28:11;99465.75;;;31.67;54.97
7376;BME280;3728;42.266;24.944;2023-07-22T07:30:39;99456.00;;;32.01;55.18
7376;BME280;3728;42.266;24.944;2023-07-22T07:33:07;99453.03;;;32.08;54.23
7376;BME280;3728;42.266;24.944;2023-07-22T07:35:34;99469.13;;;31.81;55.67
7376;BME280;3728;42.266;24.944;2023-07-22T07:38:02;99468.19;;;31.74;54.95
7376;BME280;3728;42.266;24.944;2023-07-22T07:40:30;99465.81;;;31.76;54.83
7376;BME280;3728;42.266;24.944;2023-07-22T07:42:59;99477.41;;;31.55;55.55
7376;BME280;3728;42.266;24.944;2023-07-22T07:45:26;99479.09;;;31.40;57.25
7376;BME280;3728;42.266;24.944;2023-07-22T07:47:54;99483.44;;;31.59;55.24
7376;BME280;3728;42.266;24.944;2023-07-22T07:50:21;99485.13;;;32.18;53.52
7376;BME280;3728;42.266;24.944;2023-07-22T07:52:49;99480.44;;;32.10;54.26
7376;BME280;3728;42.266;24.944;2023-07-22T07:55:16;99486.44;;;32.05;53.84
7376;BME280;3728;42.266;24.944;2023-07-22T07:57:45;99486.38;;;31.96;55.23
7376;BME280;3728;42.266;24.944;2023-07-22T08:00:13;99476.63;;;31.98;54.10
7376;BME280;3728;42.266;24.944;2023-07-22T08:02:41;99480.16;;;31.86;55.63
7376;BME280;3728;42.266;24.944;2023-07-22T08:05:09;99482.41;;;32.18;54.38
7376;BME280;3728;42.266;24.944;2023-07-22T08:07:39;99483.47;;;32.21;54.64
7376;BME280;3728;42.266;24.944;2023-07-22T08:10:06;99483.34;;;32.73;51.63
7376;BME280;3728;42.266;24.944;2023-07-22T08:12:36;99476.38;;;32.63;52.06
7376;BME280;3728;42.266;24.944;2023-07-22T08:15:04;99469.06;;;32.42;53.20
7376;BME280;3728;42.266;24.944;2023-07-22T08:17:32;99475.56;;;32.44;53.32
7376;BME280;3728;42.266;24.944;2023-07-22T08:20:00;99479.25;;;32.69;52.60
7376;BME280;3728;42.266;24.944;2023-07-22T08:22:27;99470.06;;;32.57;51.89
7376;BME280;3728;42.266;24.944;2023-07-22T08:24:55;99454.97;;;32.56;52.96
7376;BME280;3728;42.266;24.944;2023-07-22T08:27:23;99455.59;;;32.96;51.28
7376;BME280;3728;42.266;24.944;2023-07-22T08:29:51;99464.19;;;33.31;50.73
7376;BME280;3728;42.266;24.944;2023-07-22T08:32:18;99451.84;;;33.12;50.11
7376;BME280;3728;42.266;24.944;2023-07-22T08:34:47;99457.53;;;33.59;49.04
7376;BME280;3728;42.266;24.944;2023-07-22T08:37:15;99460.41;;;33.65;49.85
7376;BME280;3728;42.266;24.944;2023-07-22T08:39:43;99456.50;;;33.39;49.70
7376;BME280;3728;42.266;24.944;2023-07-22T08:42:11;99457.91;;;33.16;49.13
7376;BME280;3728;42.266;24.944;2023-07-22T08:44:43;99455.31;;;32.85;51.22
7376;BME280;3728;42.266;24.944;2023-07-22T08:47:15;99450.66;;;33.13;50.93
7376;BME280;3728;42.266;24.944;2023-07-22T08:49:46;99444.59;;;33.27;50.62
7376;BME280;3728;42.266;24.944;2023-07-22T08:52:17;99448.34;;;33.39;50.02
7376;BME280;3728;42.266;24.944;2023-07-22T08:54:46;99455.16;;;34.03;48.13
7376;BME280;3728;42.266;24.944;2023-07-22T08:57:14;99455.47;;;33.87;48.49
7376;BME280;3728;42.266;24.944;2023-07-22T08:59:42;99453.78;;;33.99;48.04
7376;BME280;3728;42.266;24.944;2023-07-22T09:02:12;99451.50;;;34.06;47.62
7376;BME280;3728;42.266;24.944;2023-07-22T09:04:40;99457.50;;;34.19;47.98
7376;BME280;3728;42.266;24.944;2023-07-22T09:07:10;99451.13;;;34.46;47.36
7376;BME280;3728;42.266;24.944;2023-07-22T09:09:38;99443.84;;;34.28;47.74
7376;BME280;3728;42.266;24.944;2023-07-22T09:12:08;99438.63;;;34.39;46.44
7376;BME280;3728;42.266;24.944;2023-07-22T09:14:37;99442.56;;;34.38;47.49
7376;BME280;3728;42.266;24.944;2023-07-22T09:17:06;99436.16;;;34.89;46.88
7376;BME280;3728;42.266;24.944;2023-07-22T09:19:33;99439.03;;;34.71;46.84
7376;BME280;3728;42.266;24.944;2023-07-22T09:22:01;99435.16;;;35.01;45.91
7376;BME280;3728;42.266;24.944;2023-07-22T09:24:29;99430.38;;;34.58;46.65
7376;BME280;3728;42.266;24.944;2023-07-22T09:26:58;99426.66;;;34.70;46.30
7376;BME280;3728;42.266;24.944;2023-07-22T09:29:38;99418.78;;;34.72;45.28
7376;BME280;3728;42.266;24.944;2023-07-22T09:32:07;99425.78;;;34.64;46.52
7376;BME280;3728;42.266;24.944;2023-07-22T09:34:35;99414.56;;;34.71;46.40
7376;BME280;3728;42.266;24.944;2023-07-22T09:37:03;99412.78;;;34.82;45.00
7376;BME280;3728;42.266;24.944;2023-07-22T09:39:32;99407.03;;;35.48;43.92
7376;BME280;3728;42.266;24.944;2023-07-22T09:41:59;99401.41;;;35.66;44.72
7376;BME280;3728;42.266;24.944;2023-07-22T09:44:31;99404.50;;;36.08;42.77
7376;BME280;3728;42.266;24.944;2023-07-22T09:47:05;99394.28;;;35.89;43.60
7376;BME280;3728;42.266;24.944;2023-07-22T09:49:40;99391.00;;;35.85;43.02
7376;BME280;3728;42.266;24.944;2023-07-22T09:52:13;99387.84;;;35.57;43.40
7376;BME280;3728;42.266;24.944;2023-07-22T09:54:47;99383.50;;;35.80;43.37
7376;BME280;3728;42.266;24.944;2023-07-22T09:57:17;99380.13;;;35.85;43.06
7376;BME280;3728;42.266;24.944;2023-07-22T09:59:46;99377.38;;;35.85;43.04
7376;BME280;3728;42.266;24.944;2023-07-22T10:02:18;99376.16;;;35.86;43.19
7376;BME280;3728;42.266;24.944;2023-07-22T10:04:55;99376.88;;;36.01;43.98
7376;BME280;3728;42.266;24.944;2023-07-22T10:07:27;99366.88;;;36.12;43.52
7376;BME280;3728;42.266;24.944;2023-07-22T10:09:55;99371.69;;;36.23;42.90
7376;BME280;3728;42.266;24.944;2023-07-22T10:12:26;99356.94;;;35.95;43.51
7376;BME280;3728;42.266;24.944;2023-07-22T10:14:54;99353.91;;;36.07;43.11
7376;BME280;3728;42.266;24.944;2023-07-22T10:17:28;99362.75;;;36.43;43.39
7376;BME280;3728;42.266;24.944;2023-07-22T10:19:57;99361.75;;;36.60;42.78
7376;BME280;3728;42.266;24.944;2023-07-22T10:22:29;99357.00;;;36.81;41.62
7376;BME280;3728;42.266;24.944;2023-07-22T10:24:59;99351.03;;;36.82;42.43
7376;BME280;3728;42.266;24.944;2023-07-22T10:27:28;99352.31;;;37.13;40.35
7376;BME280;3728;42.266;24.944;2023-07-22T10:29:57;99346.72;;;37.27;40.17
7376;BME280;3728;42.266;24.944;2023-07-22T10:32:31;99345.31;;;37.06;40.05
7376;BME280;3728;42.266;24.944;2023-07-22T10:35:01;99345.47;;;37.23;40.99
7376;BME280;3728;42.266;24.944;2023-07-22T10:37:32;99336.75;;;37.24;39.17
7376;BME280;3728;42.266;24.944;2023-07-22T10:42:59;99329.44;;;37.05;40.66
7376;BME280;3728;42.266;24.944;2023-07-22T10:45:43;99334.75;;;37.19;41.34
7376;BME280;3728;42.266;24.944;2023-07-22T10:48:17;99334.03;;;37.24;40.96
7376;BME280;3728;42.266;24.944;2023-07-22T10:51:00;99329.75;;;37.18;40.66
7376;BME280;3728;42.266;24.944;2023-07-22T10:53:41;99329.31;;;37.56;39.68
7376;BME280;3728;42.266;24.944;2023-07-22T10:56:16;99325.06;;;37.55;39.21
7376;BME280;3728;42.266;24.944;2023-07-22T11:01:40;99319.94;;;37.31;41.42
7376;BME280;3728;42.266;24.944;2023-07-22T11:04:26;99319.56;;;37.86;39.09
7376;BME280;3728;42.266;24.944;2023-07-22T11:07:43;99306.50;;;38.23;37.62
7376;BME280;3728;42.266;24.944;2023-07-22T11:10:52;99314.31;;;38.42;38.34
7376;BME280;3728;42.266;24.944;2023-07-22T11:13:28;99315.13;;;38.75;37.30
7376;BME280;3728;42.266;24.944;2023-07-22T11:16:00;99309.69;;;38.86;36.56
7376;BME280;3728;42.266;24.944;2023-07-22T11:18:49;99299.94;;;39.02;36.01
7376;BME280;3728;42.266;24.944;2023-07-22T11:21:18;99302.44;;;39.00;35.55
7376;BME280;3728;42.266;24.944;2023-07-22T11:23:46;99311.41;;;38.84;36.80
7376;BME280;3728;42.266;24.944;2023-07-22T11:26:15;99297.41;;;38.71;36.14
7376;BME280;3728;42.266;24.944;2023-07-22T11:28:46;99299.97;;;38.91;36.15
7376;BME280;3728;42.266;24.944;2023-07-22T11:31:14;99291.25;;;38.81;36.20
7376;BME280;3728;42.266;24.944;2023-07-22T11:33:42;99294.72;;;38.82;35.83
7376;BME280;3728;42.266;24.944;2023-07-22T11:36:13;99280.50;;;38.67;36.33
7376;BME280;3728;42.266;24.944;2023-07-22T11:38:41;99285.00;;;38.70;35.39
7376;BME280;3728;42.266;24.944;2023-07-22T11:41:09;99277.50;;;38.48;36.87
7376;BME280;3728;42.266;24.944;2023-07-22T11:43:38;99279.03;;;38.93;35.81
7376;BME280;3728;42.266;24.944;2023-07-22T11:46:06;99271.34;;;38.86;36.63
7376;BME280;3728;42.266;24.944;2023-07-22T11:48:34;99278.78;;;38.91;36.54
7376;BME280;3728;42.266;24.944;2023-07-22T11:51:04;99264.81;;;39.23;35.17
7376;BME280;3728;42.266;24.944;2023-07-22T11:53:37;99266.25;;;39.51;34.74
7376;BME280;3728;42.266;24.944;2023-07-22T11:56:05;99261.81;;;39.43;34.99
7376;BME280;3728;42.266;24.944;2023-07-22T11:58:33;99258.78;;;39.46;34.83
7376;BME280;3728;42.266;24.944;2023-07-22T12:01:10;99263.75;;;39.53;35.27
7376;BME280;3728;42.266;24.944;2023-07-22T12:03:39;99255.47;;;39.76;34.05
7376;BME280;3728;42.266;24.944;2023-07-22T12:06:11;99259.50;;;39.52;34.27
7376;BME280;3728;42.266;24.944;2023-07-22T12:08:46;99247.31;;;39.59;33.93
7376;BME280;3728;42.266;24.944;2023-07-22T12:11:16;99240.63;;;39.27;34.66
7376;BME280;3728;42.266;24.944;2023-07-22T12:13:45;99242.81;;;39.50;34.95
7376;BME280;3728;42.266;24.944;2023-07-22T12:16:23;99239.84;;;39.48;34.32
7376;BME280;3728;42.266;24.944;2023-07-22T12:18:54;99235.81;;;39.66;34.43
7376;BME280;3728;42.266;24.944;2023-07-22T12:21:23;99229.06;;;39.73;33.95
7376;BME280;3728;42.266;24.944;2023-07-22T12:23:53;99224.47;;;39.92;32.85
7376;BME280;3728;42.266;24.944;2023-07-22T12:26:27;99226.22;;;39.95;34.67
7376;BME280;3728;42.266;24.944;2023-07-22T12:28:56;99219.72;;;39.92;33.78
7376;BME280;3728;42.266;24.944;2023-07-22T12:31:26;99224.94;;;39.96;32.54
7376;BME280;3728;42.266;24.944;2023-07-22T12:33:54;99207.00;;;39.95;33.15
7376;BME280;3728;42.266;24.944;2023-07-22T12:36:22;99212.09;;;40.20;32.54
7376;BME280;3728;42.266;24.944;2023-07-22T12:38:50;99212.94;;;40.40;32.70
7376;BME280;3728;42.266;24.944;2023-07-22T12:41:20;99214.34;;;40.57;33.13
7376;BME280;3728;42.266;24.944;2023-07-22T12:43:52;99216.50;;;40.94;31.67
7376;BME280;3728;42.266;24.944;2023-07-22T12:46:21;99214.06;;;40.85;31.68
7376;BME280;3728;42.266;24.944;2023-07-22T12:48:51;99204.44;;;40.49;32.32
7376;BME280;3728;42.266;24.944;2023-07-22T12:51:19;99204.97;;;40.71;32.23
7376;BME280;3728;42.266;24.944;2023-07-22T12:53:47;99206.88;;;40.82;30.86
7376;BME280;3728;42.266;24.944;2023-07-22T12:56:14;99205.41;;;40.75;31.88
7376;BME280;3728;42.266;24.944;2023-07-22T12:58:42;99192.81;;;40.91;31.12
7376;BME280;3728;42.266;24.944;2023-07-22T13:01:10;99188.75;;;41.22;32.71
7376;BME280;3728;42.266;24.944;2023-07-22T13:03:37;99192.63;;;41.32;30.30
7376;BME280;3728;42.266;24.944;2023-07-22T13:06:09;99189.28;;;41.82;30.57
7376;BME280;3728;42.266;24.944;2023-07-22T13:08:37;99177.59;;;41.94;29.95
7376;BME280;3728;42.266;24.944;2023-07-22T13:11:06;99181.00;;;41.63;31.04
7376;BME280;3728;42.266;24.944;2023-07-22T13:13:36;99185.19;;;41.70;28.90
7376;BME280;3728;42.266;24.944;2023-07-22T13:16:04;99177.75;;;41.22;30.78
7376;BME280;3728;42.266;24.944;2023-07-22T13:18:33;99183.66;;;41.31;30.22
7376;BME280;3728;42.266;24.944;2023-07-22T13:21:00;99174.84;;;41.38;29.82
7376;BME280;3728;42.266;24.944;2023-07-22T13:23:28;99166.13;;;41.34;29.50
7376;BME280;3728;42.266;24.944;2023-07-22T13:26:02;99165.13;;;41.32;29.97
7376;BME280;3728;42.266;24.944;2023-07-22T13:28:33;99160.88;;;41.12;29.91
7376;BME280;3728;42.266;24.944;2023-07-22T13:31:00;99159.69;;;41.26;29.40
7376;BME280;3728;42.266;24.944;2023-07-22T13:33:28;99146.31;;;41.17;29.65
7376;BME280;3728;42.266;24.944;2023-07-22T13:35:56;99147.78;;;41.18;29.90
7376;BME280;3728;42.266;24.944;2023-07-22T13:38:24;99144.13;;;41.53;29.64
7376;BME280;3728;42.266;24.944;2023-07-22T13:40:53;99141.91;;;41.70;29.64
7376;BME280;3728;42.266;24.944;2023-07-22T13:43:23;99146.09;;;42.08;28.13
7376;BME280;3728;42.266;24.944;2023-07-22T13:45:53;99137.97;;;41.84;28.70
7376;BME280;3728;42.266;24.944;2023-07-22T13:48:23;99133.63;;;41.89;28.37
7376;BME280;3728;42.266;24.944;2023-07-22T13:50:50;99135.38;;;42.05;27.18
7376;BME280;3728;42.266;24.944;2023-07-22T13:53:21;99128.88;;;41.89;28.60
7376;BME280;3728;42.266;24.944;2023-07-22T13:55:54;99126.53;;;42.12;28.13
7376;BME280;3728;42.266;24.944;2023-07-22T13:58:23;99119.19;;;42.01;27.84
7376;BME280;3728;42.266;24.944;2023-07-22T14:00:51;99129.88;;;42.37;26.79
7376;BME280;3728;42.266;24.944;2023-07-22T14:03:19;99121.91;;;42.20;27.28
7376;BME280;3728;42.266;24.944;2023-07-22T14:05:50;99122.06;;;41.77;28.07
7376;BME280;3728;42.266;24.944;2023-07-22T14:08:18;99113.97;;;41.98;27.12
7376;BME280;3728;42.266;24.944;2023-07-22T14:10:46;99113.97;;;41.98;27.75
7376;BME280;3728;42.266;24.944;2023-07-22T14:13:14;99106.47;;;41.98;27.58
7376;BME280;3728;42.266;24.944;2023-07-22T14:15:42;99102.63;;;42.20;26.93
7376;BME280;3728;42.266;24.944;2023-07-22T14:18:13;99094.84;;;42.05;27.32
7376;BME280;3728;42.266;24.944;2023-07-22T14:20:46;99091.00;;;41.95;26.93
7376;BME280;3728;42.266;24.944;2023-07-22T14:23:16;99093.00;;;42.27;26.30
7376;BME280;3728;42.266;24.944;2023-07-22T14:25:45;99094.38;;;42.20;27.10
7376;BME280;3728;42.266;24.944;2023-07-22T14:28:13;99087.91;;;42.17;27.02
7376;BME280;3728;42.266;24.944;2023-07-22T14:30:40;99084.03;;;42.07;27.69
7376;BME280;3728;42.266;24.944;2023-07-22T14:33:12;99071.31;;;42.23;26.88
7376;BME280;3728;42.266;24.944;2023-07-22T14:35:40;99077.31;;;42.21;26.84
7376;BME280;3728;42.266;24.944;2023-07-22T14:38:08;99083.06;;;42.37;26.46
7376;BME280;3728;42.266;24.944;2023-07-22T14:40:35;99079.25;;;42.27;27.40
7376;BME280;3728;42.266;24.944;2023-07-22T14:43:03;99073.94;;;42.29;26.81
7376;BME280;3728;42.266;24.944;2023-07-22T14:45:33;99075.09;;;41.88;26.93
7376;BME280;3728;42.266;24.944;2023-07-22T14:48:04;99077.28;;;42.08;27.26
7376;BME280;3728;42.266;24.944;2023-07-22T14:50:35;99081.97;;;42.13;27.57
7376;BME280;3728;42.266;24.944;2023-07-22T14:53:03;99078.06;;;42.09;26.65
7376;BME280;3728;42.266;24.944;2023-07-22T14:55:32;99071.38;;;41.86;27.96
7376;BME280;3728;42.266;24.944;2023-07-22T14:58:01;99080.69;;;42.14;27.63
7376;BME280;3728;42.266;24.944;2023-07-22T15:00:29;99078.28;;;42.11;27.32
7376;BME280;3728;42.266;24.944;2023-07-22T15:02:58;99078.47;;;42.13;26.69
7376;BME280;3728;42.266;24.944;2023-07-22T15:05:26;99084.44;;;41.98;27.78
7376;BME280;3728;42.266;24.944;2023-07-22T15:07:55;99083.28;;;42.26;25.77
7376;BME280;3728;42.266;24.944;2023-07-22T15:10:23;99075.03;;;42.26;27.09
7376;BME280;3728;42.266;24.944;2023-07-22T15:12:52;99079.16;;;42.00;26.96
7376;BME280;3728;42.266;24.944;2023-07-22T15:15:21;99078.34;;;41.74;27.33
7376;BME280;3728;42.266;24.944;2023-07-22T15:17:49;99075.81;;;41.57;28.03
7376;BME280;3728;42.266;24.944;2023-07-22T15:20:19;99084.00;;;41.44;27.00
7376;BME280;3728;42.266;24.944;2023-07-22T15:22:48;99082.06;;;41.39;27.37
7376;BME280;3728;42.266;24.944;2023-07-22T15:25:16;99080.81;;;41.40;26.75
7376;BME280;3728;42.266;24.944;2023-07-22T15:27:44;99087.03;;;41.03;27.95
7376;BME280;3728;42.266;24.944;2023-07-22T15:30:11;99078.84;;;40.98;27.67